Terminal Aerodrome Forecast
Issued by NWS

Home | Current Version | Previous Version | Text Only | Print | Product List | Glossary On
Versions: 1 2 3 4 5 6 7 8 9 10 11 12 13 14 15
000
FTUS42 KMLB 240500
TAFISM
TAF
KISM 240520Z 2406/2506 VRB04KT P6SM FEW050 SCT250
     FM241400 VRB03KT P6SM SCT025 SCT250
     FM242000 21007KT P6SM VCTS SCT045CB BKN250
     FM250000 18004KT P6SM FEW050 SCT250
      AMD NOT SKED TIL 241100=

USA.gov is the U.S. government's official web portal to all federal, state and local government web resources and services.